sensor_id;sensor_type;location;lat;lon;timestamp;temperature;humidity
17215;DHT22;8723;51.502;6.918;2023-11-21T00:00:19;7.20;99.90
17215;DHT22;8723;51.502;6.918;2023-11-21T00:02:47;7.20;99.90
17215;DHT22;8723;51.502;6.918;2023-11-21T00:05:15;7.20;99.90
17215;DHT22;8723;51.502;6.918;2023-11-21T00:07:44;7.30;99.90
17215;DHT22;8723;51.502;6.918;2023-11-21T00:10:12;7.40;99.90
17215;DHT22;8723;51.502;6.918;2023-11-21T00:12:41;7.40;99.90
17215;DHT22;8723;51.502;6.918;2023-11-21T00:15:09;7.50;99.90
17215;DHT22;8723;51.502;6.918;2023-11-21T00:17:39;7.50;99.90
17215;DHT22;8723;51.502;6.918;2023-11-21T00:20:06;7.60;99.90
17215;DHT22;8723;51.502;6.918;2023-11-21T00:22:34;7.60;99.90
17215;DHT22;8723;51.502;6.918;2023-11-21T00:25:01;7.60;99.90
17215;DHT22;8723;51.502;6.918;2023-11-21T00:27:29;7.80;99.90
17215;DHT22;8723;51.502;6.918;2023-11-21T00:29:55;7.80;99.90
17215;DHT22;8723;51.502;6.918;2023-11-21T00:32:22;7.90;99.90
17215;DHT22;8723;51.502;6.918;2023-11-21T00:34:50;7.90;99.90
17215;DHT22;8723;51.502;6.918;2023-11-21T00:37:17;7.90;99.90
17215;DHT22;8723;51.502;6.918;2023-11-21T00:39:44;7.90;99.90
17215;DHT22;8723;51.502;6.918;2023-11-21T00:42:11;7.80;99.90
17215;DHT22;8723;51.502;6.918;2023-11-21T00:44:38;7.90;99.90
17215;DHT22;8723;51.502;6.918;2023-11-21T00:47:05;7.90;99.90
17215;DHT22;8723;51.502;6.918;2023-11-21T00:49:33;7.90;99.90
17215;DHT22;8723;51.502;6.918;2023-11-21T00:52:01;7.90;99.90
17215;DHT22;8723;51.502;6.918;2023-11-21T00:54:28;7.90;99.90
17215;DHT22;8723;51.502;6.918;2023-11-21T00:56:55;7.80;99.90
17215;DHT22;8723;51.502;6.918;2023-11-21T00:59:23;7.70;99.90
17215;DHT22;8723;51.502;6.918;2023-11-21T01:01:50;7.70;99.90
17215;DHT22;8723;51.502;6.918;2023-11-21T01:04:20;7.70;99.90
17215;DHT22;8723;51.502;6.918;2023-11-21T01:06:46;7.70;99.90
17215;DHT22;8723;51.502;6.918;2023-11-21T01:09:14;7.70;99.90
17215;DHT22;8723;51.502;6.918;2023-11-21T01:11:44;7.80;99.90
17215;DHT22;8723;51.502;6.918;2023-11-21T01:14:11;7.80;99.90
17215;DHT22;8723;51.502;6.918;2023-11-21T01:16:39;7.80;99.90
17215;DHT22;8723;51.502;6.918;2023-11-21T01:19:05;7.90;99.90
17215;DHT22;8723;51.502;6.918;2023-11-21T01:21:32;8.00;99.90
17215;DHT22;8723;51.502;6.918;2023-11-21T01:23:59;7.90;99.90
17215;DHT22;8723;51.502;6.918;2023-11-21T01:26:27;7.80;99.90
17215;DHT22;8723;51.502;6.918;2023-11-21T01:28:54;7.80;99.90
17215;DHT22;8723;51.502;6.918;2023-11-21T01:31:22;7.70;99.90
17215;DHT22;8723;51.502;6.918;2023-11-21T01:33:54;7.70;99.90
17215;DHT22;8723;51.502;6.918;2023-11-21T01:36:21;7.60;99.90
17215;DHT22;8723;51.502;6.918;2023-11-21T01:38:48;7.70;99.90
17215;DHT22;8723;51.502;6.918;2023-11-21T01:41:15;7.70;99.90
17215;DHT22;8723;51.502;6.918;2023-11-21T01:43:43;7.80;99.90
17215;DHT22;8723;51.502;6.918;2023-11-21T01:46:10;7.80;99.90
17215;DHT22;8723;51.502;6.918;2023-11-21T01:48:37;7.80;99.90
17215;DHT22;8723;51.502;6.918;2023-11-21T01:51:04;7.80;99.90
17215;DHT22;8723;51.502;6.918;2023-11-21T01:53:31;7.80;99.90
17215;DHT22;8723;51.502;6.918;2023-11-21T01:55:58;7.80;99.90
17215;DHT22;8723;51.502;6.918;2023-11-21T01:58:25;7.90;99.90
17215;DHT22;8723;51.502;6.918;2023-11-21T02:00:53;7.80;99.90
17215;DHT22;8723;51.502;6.918;2023-11-21T02:03:21;7.90;99.90
17215;DHT22;8723;51.502;6.918;2023-11-21T02:05:48;7.90;99.90
17215;DHT22;8723;51.502;6.918;2023-11-21T02:08:14;7.90;99.90
17215;DHT22;8723;51.502;6.918;2023-11-21T02:10:41;7.90;99.90
17215;DHT22;8723;51.502;6.918;2023-11-21T02:13:08;7.90;99.90
17215;DHT22;8723;51.502;6.918;2023-11-21T02:15:36;7.90;99.90
17215;DHT22;8723;51.502;6.918;2023-11-21T02:18:05;8.00;99.90
17215;DHT22;8723;51.502;6.918;2023-11-21T02:20:32;8.00;99.90
17215;DHT22;8723;51.502;6.918;2023-11-21T02:23:01;8.00;99.90
17215;DHT22;8723;51.502;6.918;2023-11-21T02:25:29;8.00;99.90
17215;DHT22;8723;51.502;6.918;2023-11-21T02:27:58;8.10;99.90
17215;DHT22;8723;51.502;6.918;2023-11-21T02:30:25;8.20;99.90
17215;DHT22;8723;51.502;6.918;2023-11-21T02:32:53;8.20;99.90
17215;DHT22;8723;51.502;6.918;2023-11-21T02:35:21;8.30;99.90
17215;DHT22;8723;51.502;6.918;2023-11-21T02:37:48;8.20;99.90
17215;DHT22;8723;51.502;6.918;2023-11-21T02:40:16;8.20;99.90
17215;DHT22;8723;51.502;6.918;2023-11-21T02:42:45;8.20;99.90
17215;DHT22;8723;51.502;6.918;2023-11-21T02:45:13;8.20;99.90
17215;DHT22;8723;51.502;6.918;2023-11-21T02:47:43;8.20;99.90
17215;DHT22;8723;51.502;6.918;2023-11-21T02:50:12;8.20;99.90
17215;DHT22;8723;51.502;6.918;2023-11-21T02:52:40;8.10;99.90
17215;DHT22;8723;51.502;6.918;2023-11-21T02:55:10;8.10;99.90
17215;DHT22;8723;51.502;6.918;2023-11-21T02:57:42;8.10;99.90
17215;DHT22;8723;51.502;6.918;2023-11-21T03:00:11;8.20;99.90
17215;DHT22;8723;51.502;6.918;2023-11-21T03:02:41;8.10;99.90
17215;DHT22;8723;51.502;6.918;2023-11-21T03:05:10;8.10;99.90
17215;DHT22;8723;51.502;6.918;2023-11-21T03:07:39;8.10;99.90
17215;DHT22;8723;51.502;6.918;2023-11-21T03:10:08;8.10;99.90
17215;DHT22;8723;51.502;6.918;2023-11-21T03:12:36;8.10;99.90
17215;DHT22;8723;51.502;6.918;2023-11-21T03:15:06;8.10;99.90
17215;DHT22;8723;51.502;6.918;2023-11-21T03:17:34;8.10;99.90
17215;DHT22;8723;51.502;6.918;2023-11-21T03:20:05;8.10;99.90
17215;DHT22;8723;51.502;6.918;2023-11-21T03:22:38;8.10;99.90
17215;DHT22;8723;51.502;6.918;2023-11-21T03:25:08;8.00;99.90
17215;DHT22;8723;51.502;6.918;2023-11-21T03:27:38;8.00;99.90
17215;DHT22;8723;51.502;6.918;2023-11-21T03:30:10;8.00;99.90
17215;DHT22;8723;51.502;6.918;2023-11-21T03:32:39;8.00;99.90
17215;DHT22;8723;51.502;6.918;2023-11-21T03:35:09;8.10;99.90
17215;DHT22;8723;51.502;6.918;2023-11-21T03:37:37;8.10;99.90
17215;DHT22;8723;51.502;6.918;2023-11-21T03:40:08;8.10;99.90
17215;DHT22;8723;51.502;6.918;2023-11-21T03:42:35;8.10;99.90
17215;DHT22;8723;51.502;6.918;2023-11-21T03:45:02;8.10;99.90
17215;DHT22;8723;51.502;6.918;2023-11-21T03:47:31;8.00;99.90
17215;DHT22;8723;51.502;6.918;2023-11-21T03:49:58;8.00;99.90
17215;DHT22;8723;51.502;6.918;2023-11-21T03:52:25;8.00;99.90
17215;DHT22;8723;51.502;6.918;2023-11-21T03:54:52;7.90;99.90
17215;DHT22;8723;51.502;6.918;2023-11-21T03:57:20;7.90;99.90
17215;DHT22;8723;51.502;6.918;2023-11-21T03:59:47;7.90;99.90
17215;DHT22;8723;51.502;6.918;2023-11-21T04:02:15;7.90;99.90
17215;DHT22;8723;51.502;6.918;2023-11-21T04:04:45;8.00;99.90
17215;DHT22;8723;51.502;6.918;2023-11-21T04:07:15;8.00;99.90
17215;DHT22;8723;51.502;6.918;2023-11-21T04:09:45;8.00;99.90
17215;DHT22;8723;51.502;6.918;2023-11-21T04:12:14;7.90;99.90
17215;DHT22;8723;51.502;6.918;2023-11-21T04:14:43;7.90;99.90
17215;DHT22;8723;51.502;6.918;2023-11-21T04:17:10;7.90;99.90
17215;DHT22;8723;51.502;6.918;2023-11-21T04:19:37;8.10;99.90
17215;DHT22;8723;51.502;6.918;2023-11-21T04:22:05;8.10;99.90
17215;DHT22;8723;51.502;6.918;2023-11-21T04:24:32;8.10;99.90
17215;DHT22;8723;51.502;6.918;2023-11-21T04:26:59;8.10;99.90
17215;DHT22;8723;51.502;6.918;2023-11-21T04:29:26;8.10;99.90
17215;DHT22;8723;51.502;6.918;2023-11-21T04:31:53;8.10;99.90
17215;DHT22;8723;51.502;6.918;2023-11-21T04:34:19;8.10;99.90
17215;DHT22;8723;51.502;6.918;2023-11-21T04:36:46;8.00;99.90
17215;DHT22;8723;51.502;6.918;2023-11-21T04:39:14;7.90;99.90
17215;DHT22;8723;51.502;6.918;2023-11-21T04:41:41;7.90;99.90
17215;DHT22;8723;51.502;6.918;2023-11-21T04:44:08;7.90;99.90
17215;DHT22;8723;51.502;6.918;2023-11-21T04:46:35;7.90;99.90
17215;DHT22;8723;51.502;6.918;2023-11-21T04:49:02;7.80;99.90
17215;DHT22;8723;51.502;6.918;2023-11-21T04:51:28;7.80;99.90
17215;DHT22;8723;51.502;6.918;2023-11-21T04:53:57;7.80;99.90
17215;DHT22;8723;51.502;6.918;2023-11-21T04:56:25;7.80;99.90
17215;DHT22;8723;51.502;6.918;2023-11-21T04:58:53;7.70;99.90
17215;DHT22;8723;51.502;6.918;2023-11-21T05:01:20;7.60;99.90
17215;DHT22;8723;51.502;6.918;2023-11-21T05:03:47;7.50;99.90
17215;DHT22;8723;51.502;6.918;2023-11-21T05:06:14;7.50;99.90
17215;DHT22;8723;51.502;6.918;2023-11-21T05:08:41;7.50;99.90
17215;DHT22;8723;51.502;6.918;2023-11-21T05:11:08;7.40;99.90
17215;DHT22;8723;51.502;6.918;2023-11-21T05:13:37;7.40;99.90
17215;DHT22;8723;51.502;6.918;2023-11-21T05:16:04;7.40;99.90
17215;DHT22;8723;51.502;6.918;2023-11-21T05:18:32;7.40;99.90
17215;DHT22;8723;51.502;6.918;2023-11-21T05:21:00;7.40;99.90
17215;DHT22;8723;51.502;6.918;2023-11-21T05:23:27;7.40;99.90
17215;DHT22;8723;51.502;6.918;2023-11-21T05:25:54;7.40;99.90
17215;DHT22;8723;51.502;6.918;2023-11-21T05:28:21;7.30;99.90
17215;DHT22;8723;51.502;6.918;2023-11-21T05:30:50;7.30;99.90
17215;DHT22;8723;51.502;6.918;2023-11-21T05:33:16;7.20;99.90
17215;DHT22;8723;51.502;6.918;2023-11-21T05:35:44;7.20;99.90
17215;DHT22;8723;51.502;6.918;2023-11-21T05:38:11;7.20;99.90
17215;DHT22;8723;51.502;6.918;2023-11-21T05:40:38;7.20;99.90
17215;DHT22;8723;51.502;6.918;2023-11-21T05:43:05;7.20;99.90
17215;DHT22;8723;51.502;6.918;2023-11-21T05:45:32;7.20;99.90
17215;DHT22;8723;51.502;6.918;2023-11-21T05:48:00;7.10;99.90
17215;DHT22;8723;51.502;6.918;2023-11-21T05:50:28;7.20;99.90
17215;DHT22;8723;51.502;6.918;2023-11-21T05:52:56;7.20;99.90
17215;DHT22;8723;51.502;6.918;2023-11-21T05:55:25;7.20;99.90
17215;DHT22;8723;51.502;6.918;2023-11-21T05:57:52;7.30;99.90
17215;DHT22;8723;51.502;6.918;2023-11-21T06:00:19;7.40;99.90
17215;DHT22;8723;51.502;6.918;2023-11-21T06:02:47;7.30;99.90
17215;DHT22;8723;51.502;6.918;2023-11-21T06:05:17;7.40;99.90
17215;DHT22;8723;51.502;6.918;2023-11-21T06:07:44;7.40;99.90
17215;DHT22;8723;51.502;6.918;2023-11-21T06:10:12;7.40;99.90
17215;DHT22;8723;51.502;6.918;2023-11-21T06:12:40;7.40;99.90
17215;DHT22;8723;51.502;6.918;2023-11-21T06:15:09;7.40;99.90
17215;DHT22;8723;51.502;6.918;2023-11-21T06:17:39;7.40;99.90
17215;DHT22;8723;51.502;6.918;2023-11-21T06:20:08;7.40;99.90
17215;DHT22;8723;51.502;6.918;2023-11-21T06:22:37;7.40;99.90
17215;DHT22;8723;51.502;6.918;2023-11-21T06:25:05;7.40;99.90
17215;DHT22;8723;51.502;6.918;2023-11-21T06:27:33;7.40;99.90
17215;DHT22;8723;51.502;6.918;2023-11-21T06:30:00;7.30;99.90
17215;DHT22;8723;51.502;6.918;2023-11-21T06:32:27;7.40;99.90
17215;DHT22;8723;51.502;6.918;2023-11-21T06:34:55;7.50;99.90
17215;DHT22;8723;51.502;6.918;2023-11-21T06:37:21;7.50;99.90
17215;DHT22;8723;51.502;6.918;2023-11-21T06:39:50;7.50;99.90
17215;DHT22;8723;51.502;6.918;2023-11-21T06:42:17;7.50;99.90
17215;DHT22;8723;51.502;6.918;2023-11-21T06:44:45;7.50;99.90
17215;DHT22;8723;51.502;6.918;2023-11-21T06:47:12;7.50;99.90
17215;DHT22;8723;51.502;6.918;2023-11-21T06:49:39;7.50;99.90
17215;DHT22;8723;51.502;6.918;2023-11-21T06:52:06;7.50;99.90
17215;DHT22;8723;51.502;6.918;2023-11-21T06:54:33;7.50;99.90
17215;DHT22;8723;51.502;6.918;2023-11-21T06:57:02;7.60;99.90
17215;DHT22;8723;51.502;6.918;2023-11-21T06:59:29;7.60;99.90
17215;DHT22;8723;51.502;6.918;2023-11-21T07:01:56;7.60;99.90
17215;DHT22;8723;51.502;6.918;2023-11-21T07:04:22;7.60;99.90
17215;DHT22;8723;51.502;6.918;2023-11-21T07:06:51;7.60;99.90
17215;DHT22;8723;51.502;6.918;2023-11-21T07:09:18;7.60;99.90
17215;DHT22;8723;51.502;6.918;2023-11-21T07:11:47;7.70;99.90
17215;DHT22;8723;51.502;6.918;2023-11-21T07:14:15;7.70;99.90
17215;DHT22;8723;51.502;6.918;2023-11-21T07:16:45;7.80;99.90
17215;DHT22;8723;51.502;6.918;2023-11-21T07:19:12;7.80;99.90
17215;DHT22;8723;51.502;6.918;2023-11-21T07:21:40;7.80;99.90
17215;DHT22;8723;51.502;6.918;2023-11-21T07:24:07;7.90;99.90
17215;DHT22;8723;51.502;6.918;2023-11-21T07:26:35;7.90;99.90
17215;DHT22;8723;51.502;6.918;2023-11-21T07:29:02;8.00;99.90
17215;DHT22;8723;51.502;6.918;2023-11-21T07:31:30;8.00;99.90
17215;DHT22;8723;51.502;6.918;2023-11-21T07:34:00;8.10;99.90
17215;DHT22;8723;51.502;6.918;2023-11-21T07:36:27;8.10;99.90
17215;DHT22;8723;51.502;6.918;2023-11-21T07:38:54;8.20;99.90
17215;DHT22;8723;51.502;6.918;2023-11-21T07:41:20;8.20;99.90
17215;DHT22;8723;51.502;6.918;2023-11-21T07:43:47;8.30;99.90
17215;DHT22;8723;51.502;6.918;2023-11-21T07:46:14;8.30;99.90
17215;DHT22;8723;51.502;6.918;2023-11-21T07:48:43;8.40;99.90
17215;DHT22;8723;51.502;6.918;2023-11-21T07:51:11;8.40;99.90
17215;DHT22;8723;51.502;6.918;2023-11-21T07:53:39;8.50;99.90
17215;DHT22;8723;51.502;6.918;2023-11-21T07:56:07;8.50;99.90
17215;DHT22;8723;51.502;6.918;2023-11-21T07:58:35;8.60;99.90
17215;DHT22;8723;51.502;6.918;2023-11-21T08:01:02;8.60;99.90
17215;DHT22;8723;51.502;6.918;2023-11-21T08:03:29;8.70;99.90
17215;DHT22;8723;51.502;6.918;2023-11-21T08:05:57;8.80;99.90
17215;DHT22;8723;51.502;6.918;2023-11-21T08:08:25;8.90;99.90
17215;DHT22;8723;51.502;6.918;2023-11-21T08:10:53;8.90;99.90
17215;DHT22;8723;51.502;6.918;2023-11-21T08:13:22;8.90;99.90
17215;DHT22;8723;51.502;6.918;2023-11-21T08:15:49;8.90;99.90
17215;DHT22;8723;51.502;6.918;2023-11-21T08:18:16;9.00;99.90
17215;DHT22;8723;51.502;6.918;2023-11-21T08:20:43;9.00;99.90
17215;DHT22;8723;51.502;6.918;2023-11-21T08:23:14;9.00;99.90
17215;DHT22;8723;51.502;6.918;2023-11-21T08:25:43;9.00;99.90
17215;DHT22;8723;51.502;6.918;2023-11-21T08:28:09;9.00;99.90
17215;DHT22;8723;51.502;6.918;2023-11-21T08:30:36;9.00;99.90
17215;DHT22;8723;51.502;6.918;2023-11-21T08:33:03;9.00;99.90
17215;DHT22;8723;51.502;6.918;2023-11-21T08:35:31;9.00;99.90
17215;DHT22;8723;51.502;6.918;2023-11-21T08:37:58;9.10;99.90
17215;DHT22;8723;51.502;6.918;2023-11-21T08:40:26;9.10;99.90
17215;DHT22;8723;51.502;6.918;2023-11-21T08:42:53;9.10;99.90
17215;DHT22;8723;51.502;6.918;2023-11-21T08:45:20;9.10;99.90
17215;DHT22;8723;51.502;6.918;2023-11-21T08:47:48;9.20;99.90
17215;DHT22;8723;51.502;6.918;2023-11-21T08:50:15;9.20;99.90
17215;DHT22;8723;51.502;6.918;2023-11-21T08:52:43;9.20;99.90
17215;DHT22;8723;51.502;6.918;2023-11-21T08:55:11;9.20;99.90
17215;DHT22;8723;51.502;6.918;2023-11-21T08:57:41;9.30;99.90
17215;DHT22;8723;51.502;6.918;2023-11-21T09:00:10;9.20;99.90
17215;DHT22;8723;51.502;6.918;2023-11-21T09:02:38;9.20;99.90
17215;DHT22;8723;51.502;6.918;2023-11-21T09:05:08;9.30;99.90
17215;DHT22;8723;51.502;6.918;2023-11-21T09:07:35;9.40;99.90
17215;DHT22;8723;51.502;6.918;2023-11-21T09:10:02;9.40;99.90
17215;DHT22;8723;51.502;6.918;2023-11-21T09:12:29;9.40;99.90
17215;DHT22;8723;51.502;6.918;2023-11-21T09:14:59;9.40;99.90
17215;DHT22;8723;51.502;6.918;2023-11-21T09:17:26;9.40;99.90
17215;DHT22;8723;51.502;6.918;2023-11-21T09:19:52;9.50;99.90
17215;DHT22;8723;51.502;6.918;2023-11-21T09:22:19;9.50;99.90
17215;DHT22;8723;51.502;6.918;2023-11-21T09:24:46;9.50;99.90
17215;DHT22;8723;51.502;6.918;2023-11-21T09:27:13;9.50;99.90
17215;DHT22;8723;51.502;6.918;2023-11-21T09:29:40;9.60;99.90
17215;DHT22;8723;51.502;6.918;2023-11-21T09:32:09;9.60;99.90
17215;DHT22;8723;51.502;6.918;2023-11-21T09:34:38;9.50;99.90
17215;DHT22;8723;51.502;6.918;2023-11-21T09:37:04;9.50;99.90
17215;DHT22;8723;51.502;6.918;2023-11-21T09:39:32;9.50;99.90
17215;DHT22;8723;51.502;6.918;2023-11-21T09:42:07;9.50;99.90
17215;DHT22;8723;51.502;6.918;2023-11-21T09:44:42;9.50;99.90
17215;DHT22;8723;51.502;6.918;2023-11-21T09:47:14;9.50;99.90
17215;DHT22;8723;51.502;6.918;2023-11-21T09:49:43;9.50;99.90
17215;DHT22;8723;51.502;6.918;2023-11-21T09:52:18;9.60;99.90
17215;DHT22;8723;51.502;6.918;2023-11-21T09:54:49;9.60;99.90
17215;DHT22;8723;51.502;6.918;2023-11-21T09:57:17;9.60;99.90
17215;DHT22;8723;51.502;6.918;2023-11-21T09:59:45;9.50;99.90
17215;DHT22;8723;51.502;6.918;2023-11-21T10:02:16;9.50;99.90
17215;DHT22;8723;51.502;6.918;2023-11-21T10:04:44;9.50;99.90
17215;DHT22;8723;51.502;6.918;2023-11-21T10:07:11;9.60;99.90
17215;DHT22;8723;51.502;6.918;2023-11-21T10:09:41;9.60;99.90
17215;DHT22;8723;51.502;6.918;2023-11-21T10:12:10;9.70;99.90
17215;DHT22;8723;51.502;6.918;2023-11-21T10:14:40;9.70;99.90
17215;DHT22;8723;51.502;6.918;2023-11-21T10:17:08;9.70;99.90
17215;DHT22;8723;51.502;6.918;2023-11-21T10:19:39;9.70;99.90
17215;DHT22;8723;51.502;6.918;2023-11-21T10:22:07;9.70;99.90
17215;DHT22;8723;51.502;6.918;2023-11-21T10:24:34;9.70;99.90
17215;DHT22;8723;51.502;6.918;2023-11-21T10:27:03;9.80;99.90
17215;DHT22;8723;51.502;6.918;2023-11-21T10:29:30;9.90;99.90
17215;DHT22;8723;51.502;6.918;2023-11-21T10:32:02;10.00;99.90
17215;DHT22;8723;51.502;6.918;2023-11-21T10:34:29;10.00;99.90
17215;DHT22;8723;51.502;6.918;2023-11-21T10:36:57;9.90;99.90
17215;DHT22;8723;51.502;6.918;2023-11-21T10:39:24;10.00;99.90
17215;DHT22;8723;51.502;6.918;2023-11-21T10:41:54;10.00;99.90
17215;DHT22;8723;51.502;6.918;2023-11-21T10:44:22;9.90;99.90
17215;DHT22;8723;51.502;6.918;2023-11-21T10:46:50;10.00;99.90
17215;DHT22;8723;51.502;6.918;2023-11-21T10:49:17;10.00;99.90
17215;DHT22;8723;51.502;6.918;2023-11-21T10:51:45;9.90;99.90
17215;DHT22;8723;51.502;6.918;2023-11-21T10:54:18;9.90;99.90
17215;DHT22;8723;51.502;6.918;2023-11-21T10:56:47;9.90;99.90
17215;DHT22;8723;51.502;6.918;2023-11-21T10:59:17;9.90;99.90
17215;DHT22;8723;51.502;6.918;2023-11-21T11:01:45;9.90;99.90
17215;DHT22;8723;51.502;6.918;2023-11-21T11:04:12;10.10;99.90
17215;DHT22;8723;51.502;6.918;2023-11-21T11:06:43;10.20;99.90
17215;DHT22;8723;51.502;6.918;2023-11-21T11:09:12;10.20;99.90
17215;DHT22;8723;51.502;6.918;2023-11-21T11:11:41;10.30;99.90
17215;DHT22;8723;51.502;6.918;2023-11-21T11:14:11;10.30;99.90
17215;DHT22;8723;51.502;6.918;2023-11-21T11:16:39;10.40;99.90
17215;DHT22;8723;51.502;6.918;2023-11-21T11:19:07;10.40;99.90
17215;DHT22;8723;51.502;6.918;2023-11-21T11:21:43;10.40;99.90
17215;DHT22;8723;51.502;6.918;2023-11-21T11:24:22;10.40;99.90
17215;DHT22;8723;51.502;6.918;2023-11-21T11:27:01;10.40;99.90
17215;DHT22;8723;51.502;6.918;2023-11-21T11:29:36;10.40;99.90
17215;DHT22;8723;51.502;6.918;2023-11-21T11:32:16;10.30;99.90
17215;DHT22;8723;51.502;6.918;2023-11-21T11:34:47;10.30;99.90
17215;DHT22;8723;51.502;6.918;2023-11-21T11:37:16;10.20;99.90
17215;DHT22;8723;51.502;6.918;2023-11-21T11:39:43;10.20;99.90
17215;DHT22;8723;51.502;6.918;2023-11-21T11:42:14;10.30;99.90
17215;DHT22;8723;51.502;6.918;2023-11-21T11:44:49;10.40;99.90
17215;DHT22;8723;51.502;6.918;2023-11-21T11:47:20;10.40;99.90
17215;DHT22;8723;51.502;6.918;2023-11-21T11:49:59;10.30;99.90
17215;DHT22;8723;51.502;6.918;2023-11-21T11:52:35;10.30;99.90
17215;DHT22;8723;51.502;6.918;2023-11-21T11:55:05;10.30;99.90
17215;DHT22;8723;51.502;6.918;2023-11-21T11:57:34;10.40;99.90
17215;DHT22;8723;51.502;6.918;2023-11-21T12:00:12;10.40;99.90
17215;DHT22;8723;51.502;6.918;2023-11-21T12:02:42;10.40;99.90
17215;DHT22;8723;51.502;6.918;2023-11-21T12:05:11;10.40;99.90
17215;DHT22;8723;51.502;6.918;2023-11-21T12:07:46;10.40;99.90
17215;DHT22;8723;51.502;6.918;2023-11-21T12:10:14;10.40;99.90
17215;DHT22;8723;51.502;6.918;2023-11-21T12:12:45;10.40;99.90
17215;DHT22;8723;51.502;6.918;2023-11-21T12:15:12;10.50;99.90
17215;DHT22;8723;51.502;6.918;2023-11-21T12:17:41;10.40;99.90
17215;DHT22;8723;51.502;6.918;2023-11-21T12:20:09;10.40;99.90
17215;DHT22;8723;51.502;6.918;2023-11-21T12:22:42;10.40;99.90
17215;DHT22;8723;51.502;6.918;2023-11-21T12:25:09;10.40;99.90
17215;DHT22;8723;51.502;6.918;2023-11-21T12:27:42;10.30;99.90
17215;DHT22;8723;51.502;6.918;2023-11-21T12:30:12;10.30;99.90
17215;DHT22;8723;51.502;6.918;2023-11-21T12:32:41;10.30;99.90
17215;DHT22;8723;51.502;6.918;2023-11-21T12:35:09;10.40;99.90
17215;DHT22;8723;51.502;6.918;2023-11-21T12:37:36;10.30;99.90
17215;DHT22;8723;51.502;6.918;2023-11-21T12:40:05;10.30;99.90
17215;DHT22;8723;51.502;6.918;2023-11-21T12:42:33;10.30;99.90
17215;DHT22;8723;51.502;6.918;2023-11-21T12:45:08;10.20;99.90
17215;DHT22;8723;51.502;6.918;2023-11-21T12:47:41;10.20;99.90
17215;DHT22;8723;51.502;6.918;2023-11-21T12:50:09;10.20;99.90
17215;DHT22;8723;51.502;6.918;2023-11-21T12:52:42;10.20;99.90
17215;DHT22;8723;51.502;6.918;2023-11-21T12:55:15;10.10;99.90
17215;DHT22;8723;51.502;6.918;2023-11-21T12:57:43;10.10;99.90
17215;DHT22;8723;51.502;6.918;2023-11-21T13:00:12;10.00;99.90
17215;DHT22;8723;51.502;6.918;2023-11-21T13:02:54;10.10;99.90
17215;DHT22;8723;51.502;6.918;2023-11-21T13:05:26;10.10;99.90
17215;DHT22;8723;51.502;6.918;2023-11-21T13:07:54;10.00;99.90
17215;DHT22;8723;51.502;6.918;2023-11-21T13:10:23;10.10;99.90
17215;DHT22;8723;51.502;6.918;2023-11-21T13:12:52;10.10;99.90
17215;DHT22;8723;51.502;6.918;2023-11-21T13:15:20;10.10;99.90
17215;DHT22;8723;51.502;6.918;2023-11-21T13:17:47;10.00;99.90
17215;DHT22;8723;51.502;6.918;2023-11-21T13:20:17;10.00;99.90
17215;DHT22;8723;51.502;6.918;2023-11-21T13:22:49;10.00;99.90
17215;DHT22;8723;51.502;6.918;2023-11-21T13:25:19;10.00;99.90
17215;DHT22;8723;51.502;6.918;2023-11-21T13:27:46;10.00;99.90
17215;DHT22;8723;51.502;6.918;2023-11-21T13:30:14;10.00;99.90
17215;DHT22;8723;51.502;6.918;2023-11-21T13:32:42;10.00;99.90
17215;DHT22;8723;51.502;6.918;2023-11-21T13:35:10;10.00;99.90
17215;DHT22;8723;51.502;6.918;2023-11-21T13:37:48;10.00;99.90
17215;DHT22;8723;51.502;6.918;2023-11-21T13:40:20;10.00;99.90
17215;DHT22;8723;51.502;6.918;2023-11-21T13:42:49;10.10;99.90
17215;DHT22;8723;51.502;6.918;2023-11-21T13:45:19;10.20;99.90
17215;DHT22;8723;51.502;6.918;2023-11-21T13:47:47;10.10;99.90
17215;DHT22;8723;51.502;6.918;2023-11-21T13:50:16;10.10;99.90
17215;DHT22;8723;51.502;6.918;2023-11-21T13:52:49;10.10;99.90
17215;DHT22;8723;51.502;6.918;2023-11-21T13:55:18;10.20;99.90
17215;DHT22;8723;51.502;6.918;2023-11-21T13:57:45;10.10;99.90
17215;DHT22;8723;51.502;6.918;2023-11-21T14:00:16;10.10;99.90
17215;DHT22;8723;51.502;6.918;2023-11-21T14:02:56;10.10;99.90
17215;DHT22;8723;51.502;6.918;2023-11-21T14:05:26;10.10;99.90
17215;DHT22;8723;51.502;6.918;2023-11-21T14:07:56;10.10;99.90
17215;DHT22;8723;51.502;6.918;2023-11-21T14:10:28;10.00;99.90
17215;DHT22;8723;51.502;6.918;2023-11-21T14:13:02;10.00;99.90
17215;DHT22;8723;51.502;6.918;2023-11-21T14:15:30;10.00;99.90
17215;DHT22;8723;51.502;6.918;2023-11-21T14:17:58;10.00;99.90
17215;DHT22;8723;51.502;6.918;2023-11-21T14:20:28;10.00;99.90
17215;DHT22;8723;51.502;6.918;2023-11-21T14:22:56;10.00;99.90
17215;DHT22;8723;51.502;6.918;2023-11-21T14:25:23;10.00;99.90
17215;DHT22;8723;51.502;6.918;2023-11-21T14:27:52;10.00;99.90
17215;DHT22;8723;51.502;6.918;2023-11-21T14:30:19;10.00;99.90
17215;DHT22;8723;51.502;6.918;2023-11-21T14:32:48;10.00;99.90
17215;DHT22;8723;51.502;6.918;2023-11-21T14:35:15;9.90;99.90
17215;DHT22;8723;51.502;6.918;2023-11-21T14:37:42;9.90;99.90
17215;DHT22;8723;51.502;6.918;2023-11-21T14:40:11;9.80;99.90
17215;DHT22;8723;51.502;6.918;2023-11-21T14:42:41;9.80;99.90
17215;DHT22;8723;51.502;6.918;2023-11-21T14:45:09;9.80;99.90
17215;DHT22;8723;51.502;6.918;2023-11-21T14:47:38;9.80;99.90
17215;DHT22;8723;51.502;6.918;2023-11-21T14:50:09;9.80;99.90
17215;DHT22;8723;51.502;6.918;2023-11-21T14:53:04;9.80;99.90
17215;DHT22;8723;51.502;6.918;2023-11-21T14:55:33;9.80;99.90
17215;DHT22;8723;51.502;6.918;2023-11-21T14:58:13;9.80;99.90
17215;DHT22;8723;51.502;6.918;2023-11-21T15:00:45;9.70;99.90
17215;DHT22;8723;51.502;6.918;2023-11-21T15:03:12;9.70;99.90
17215;DHT22;8723;51.502;6.918;2023-11-21T15:05:59;9.70;99.90
17215;DHT22;8723;51.502;6.918;2023-11-21T15:08:35;9.60;99.90
17215;DHT22;8723;51.502;6.918;2023-11-21T15:11:04;9.60;99.90
17215;DHT22;8723;51.502;6.918;2023-11-21T15:13:34;9.60;99.90
17215;DHT22;8723;51.502;6.918;2023-11-21T15:16:01;9.60;99.90
17215;DHT22;8723;51.502;6.918;2023-11-21T15:18:33;9.60;99.90
17215;DHT22;8723;51.502;6.918;2023-11-21T15:21:00;9.60;99.90
17215;DHT22;8723;51.502;6.918;2023-11-21T15:23:29;9.60;99.90
17215;DHT22;8723;51.502;6.918;2023-11-21T15:25:56;9.60;99.90
17215;DHT22;8723;51.502;6.918;2023-11-21T15:28:25;9.60;99.90
17215;DHT22;8723;51.502;6.918;2023-11-21T15:30:51;9.50;99.90
17215;DHT22;8723;51.502;6.918;2023-11-21T15:33:18;9.50;99.90
17215;DHT22;8723;51.502;6.918;2023-11-21T15:35:45;9.60;99.90
17215;DHT22;8723;51.502;6.918;2023-11-21T15:38:12;9.50;99.90
17215;DHT22;8723;51.502;6.918;2023-11-21T15:40:39;9.40;99.90
17215;DHT22;8723;51.502;6.918;2023-11-21T15:43:06;9.40;99.90
17215;DHT22;8723;51.502;6.918;2023-11-21T15:45:34;9.40;99.90
17215;DHT22;8723;51.502;6.918;2023-11-21T15:48:01;9.30;99.90
17215;DHT22;8723;51.502;6.918;2023-11-21T15:50:28;9.20;99.90
17215;DHT22;8723;51.502;6.918;2023-11-21T15:52:57;9.20;99.90
17215;DHT22;8723;51.502;6.918;2023-11-21T15:55:24;9.20;99.90
17215;DHT22;8723;51.502;6.918;2023-11-21T15:57:52;9.20;99.90
17215;DHT22;8723;51.502;6.918;2023-11-21T16:00:19;9.10;99.90
17215;DHT22;8723;51.502;6.918;2023-11-21T16:02:49;9.10;99.90
17215;DHT22;8723;51.502;6.918;2023-11-21T16:05:16;9.10;99.90